createdAt,value
2019-04-22T00:02:02.428Z,74.36
2019-04-22T00:12:57.902Z,75.32
2019-04-22T00:16:32.062Z,75.46
2019-04-22T00:20:04.347Z,74.76
2019-04-22T00:23:16.909Z,74.73
2019-04-22T00:26:23.698Z,74.71
2019-04-22T00:33:07.810Z,74.39
2019-04-22T00:36:28.873Z,74.76
2019-04-22T00:39:40.913Z,75.13
2019-04-22T00:42:55.390Z,76.93
2019-04-22T00:50:46.692Z,79.14
2019-04-22T00:54:21.540Z,79.75
2019-04-22T00:57:32.379Z,80.02
2019-04-22T01:00:54.561Z,81.16
2019-04-22T01:04:04.364Z,82.08
2019-04-22T01:07:11.531Z,82.65
2019-04-22T01:10:26.337Z,83.12
2019-04-22T01:13:30.417Z,83.54
2019-04-22T01:16:42.977Z,84.03
2019-04-22T01:20:04.985Z,84.99
2019-04-22T01:30:43.884Z,85.93
2019-04-22T01:34:09.967Z,86.17
2019-04-22T01:37:24.082Z,86.36
2019-04-22T01:40:50.831Z,86.23
2019-04-22T01:43:59.068Z,86.32
2019-04-22T01:51:02.324Z,86.05
2019-04-22T01:57:31.744Z,86.43
2019-04-22T02:00:40.257Z,86.77
2019-04-22T02:04:30.281Z,87.26
2019-04-22T02:07:42.364Z,87.49
2019-04-22T02:10:54.624Z,87.61
2019-04-22T02:14:09.187Z,87.25
2019-04-22T02:17:21.076Z,86.78
2019-04-22T02:20:23.094Z,86.28
2019-04-22T02:26:41.970Z,85.85
2019-04-22T02:33:21.844Z,86.54
2019-04-22T02:36:19.311Z,86.89
2019-04-22T02:39:16.145Z,87.21
2019-04-22T02:42:14.332Z,86.87
2019-04-22T02:45:42.480Z,86.57
2019-04-22T02:51:40.810Z,86.46
2019-04-22T02:54:55.122Z,86.90
2019-04-22T02:57:57.688Z,87.10
2019-04-22T03:01:13.963Z,87.29
2019-04-22T03:04:22.801Z,86.53
2019-04-22T03:07:23.481Z,85.92
2019-04-22T03:10:46.139Z,86.38
2019-04-22T03:13:46.836Z,86.48
2019-04-22T03:16:57.824Z,85.98
2019-04-22T03:20:02.040Z,86.17
2019-04-22T03:23:16.979Z,86.97
2019-04-22T03:26:18.808Z,87.27
2019-04-22T03:29:56.335Z,87.47
2019-04-22T03:36:05.303Z,88.57
2019-04-22T03:39:29.685Z,89.53
2019-04-22T03:42:21.547Z,89.76
2019-04-22T03:51:49.830Z,90.44
2019-04-22T04:01:29.563Z,90.24
2019-04-22T04:07:31.011Z,90.54
2019-04-22T04:13:41.612Z,90.37
2019-04-22T04:16:56.202Z,90.49
2019-04-22T04:23:18.984Z,90.44
2019-04-22T04:26:18.897Z,90.78
2019-04-22T04:29:36.254Z,90.05
2019-04-22T04:32:51.313Z,89.59
2019-04-22T04:39:10.922Z,90.42
2019-04-22T04:42:04.734Z,89.66
2019-04-22T04:45:23.438Z,88.85
2019-04-22T04:48:15.020Z,88.16
2019-04-22T04:51:35.342Z,87.78
2019-04-22T04:54:48.714Z,88.23
2019-04-22T05:00:58.045Z,87.65
2019-04-22T05:04:04.709Z,86.81
2019-04-22T05:07:09.233Z,86.78
2019-04-22T05:13:39.728Z,86.20
2019-04-22T05:16:42.786Z,86.28
2019-04-22T05:22:43.147Z,86.38
2019-04-22T05:25:40.838Z,85.84
2019-04-22T05:28:54.555Z,85.84
2019-04-22T05:32:03.157Z,85.96
2019-04-22T05:38:20.151Z,85.78
2019-04-22T05:41:27.217Z,85.75
2019-04-22T05:44:37.208Z,84.58
2019-04-22T05:47:42.205Z,84.16
2019-04-22T05:50:52.654Z,83.74
2019-04-22T05:53:59.394Z,83.96
2019-04-22T05:57:07.709Z,83.62
2019-04-22T06:00:18.367Z,83.43
2019-04-22T06:03:16.511Z,83.23
2019-04-22T06:06:32.200Z,82.27
2019-04-22T06:09:36.830Z,81.44
2019-04-22T06:12:41.752Z,82.21
2019-04-22T06:15:52.997Z,78.44
2019-04-22T06:19:07.456Z,78.44
2019-04-22T06:22:16.851Z,79.04
2019-04-22T06:25:27.616Z,78.50
2019-04-22T06:28:38.773Z,77.56
2019-04-22T06:31:52.563Z,76.55
2019-04-22T06:34:54.660Z,77.71
2019-04-22T06:38:19.138Z,77.83
2019-04-22T06:41:08.601Z,77.13
2019-04-22T06:44:22.637Z,76.62
2019-04-22T06:47:28.677Z,75.61
2019-04-22T06:50:31.465Z,76.01
2019-04-22T06:53:34.423Z,75.59
2019-04-22T06:56:43.132Z,75.43
2019-04-22T06:59:53.767Z,74.79
2019-04-22T07:03:27.224Z,74.34
2019-04-22T07:06:09.495Z,74.32
2019-04-22T07:12:24.338Z,73.59
2019-04-22T07:15:46.778Z,73.49
2019-04-22T07:18:37.306Z,73.18
2019-04-22T07:21:50.862Z,73.54
2019-04-22T07:25:13.966Z,72.35
2019-04-22T07:28:05.084Z,71.55
2019-04-22T07:31:12.974Z,71.45
2019-04-22T07:34:29.630Z,71.20
2019-04-22T07:40:40.507Z,71.32
2019-04-22T07:44:02.945Z,70.25
2019-04-22T07:47:00.931Z,70.25
2019-04-22T07:53:08.340Z,69.31
2019-04-22T07:56:18.660Z,68.93
2019-04-22T08:02:39.131Z,67.04
2019-04-22T08:08:53.535Z,65.50
2019-04-22T08:15:05.673Z,63.91
2019-04-22T08:18:17.526Z,64.19
2019-04-22T08:21:16.295Z,64.20
2019-04-22T08:24:35.969Z,63.86
2019-04-22T08:27:47.130Z,62.54
2019-04-22T08:34:02.073Z,60.29
2019-04-22T08:40:21.085Z,59.94
2019-04-22T08:43:26.782Z,59.94
2019-04-22T08:46:33.997Z,59.13
2019-04-22T08:49:42.472Z,58.00
2019-04-22T08:52:55.593Z,58.45
2019-04-22T08:56:07.825Z,58.55
2019-04-22T08:59:11.047Z,58.95
2019-04-22T09:02:17.124Z,58.95
2019-04-22T09:05:37.366Z,59.07
2019-04-22T09:08:35.672Z,58.13
2019-04-22T09:11:44.411Z,58.06
2019-04-22T09:14:45.618Z,58.87
2019-04-22T09:21:14.671Z,57.30
2019-04-22T09:24:10.550Z,57.82
2019-04-22T09:27:31.769Z,58.72
2019-04-22T09:30:56.658Z,60.22
2019-04-22T09:33:53.613Z,61.06
2019-04-22T09:37:20.429Z,61.06
2019-04-22T09:40:35.208Z,60.49
2019-04-22T09:43:32.199Z,59.68
2019-04-22T09:49:51.956Z,58.32
2019-04-22T09:52:54.653Z,57.54
2019-04-22T09:56:03.953Z,57.38
2019-04-22T09:59:07.587Z,58.22
2019-04-22T10:02:37.083Z,57.72
2019-04-22T10:05:30.246Z,57.95
2019-04-22T10:08:43.546Z,58.57
2019-04-22T10:14:49.496Z,59.96
2019-04-22T10:17:56.547Z,58.71
2019-04-22T10:21:12.744Z,58.71
2019-04-22T10:24:13.528Z,58.49
2019-04-22T10:27:20.622Z,58.38
2019-04-22T10:30:38.343Z,57.53
2019-04-22T10:33:34.187Z,58.07
2019-04-22T10:36:21.458Z,57.65
2019-04-22T10:39:41.199Z,56.78
2019-04-22T10:42:45.173Z,55.82
2019-04-22T10:45:52.324Z,55.82
2019-04-22T10:49:02.116Z,54.72
2019-04-22T10:52:08.736Z,54.49
2019-04-22T10:55:15.270Z,54.34
2019-04-22T10:58:22.897Z,52.55
2019-04-22T11:01:29.681Z,53.08
2019-04-22T11:04:36.404Z,53.69
2019-04-22T11:07:51.343Z,53.83
2019-04-22T11:11:06.861Z,55.31
2019-04-22T11:14:01.937Z,54.15
2019-04-22T11:17:08.961Z,54.35
2019-04-22T11:20:15.873Z,54.37
2019-04-22T11:23:22.716Z,52.90
2019-04-22T11:26:29.926Z,51.08
2019-04-22T11:29:39.377Z,48.71
2019-04-22T11:32:46.588Z,47.18
2019-04-22T11:35:53.368Z,47.80
2019-04-22T11:39:05.398Z,46.91
2019-04-22T11:42:10.037Z,48.04
2019-04-22T11:45:19.907Z,46.73
2019-04-22T11:48:29.214Z,46.50
2019-04-22T11:51:36.292Z,46.00
2019-04-22T11:54:43.245Z,46.36
2019-04-22T11:57:50.035Z,46.92
2019-04-22T12:00:57.309Z,46.79
2019-04-22T12:04:04.593Z,48.21
2019-04-22T12:07:12.818Z,50.22
2019-04-22T12:10:29.628Z,50.48
2019-04-22T12:13:33.689Z,50.19
2019-04-22T12:16:41.362Z,49.71
2019-04-22T12:19:52.650Z,49.48
2019-04-22T12:22:59.056Z,50.74
2019-04-22T12:26:12.733Z,50.56
2019-04-22T12:29:17.150Z,51.59
2019-04-22T12:32:23.277Z,50.35
2019-04-22T12:35:30.433Z,48.77
2019-04-22T12:38:37.742Z,48.00
2019-04-22T12:41:44.393Z,47.70
2019-04-22T12:44:51.160Z,49.11
2019-04-22T12:48:04.716Z,48.27
2019-04-22T12:51:13.278Z,49.93
2019-04-22T12:54:21.182Z,51.26
2019-04-22T12:57:28.322Z,52.65
2019-04-22T13:00:36.313Z,52.65
2019-04-22T13:03:52.031Z,51.59
2019-04-22T13:06:59.705Z,52.01
2019-04-22T13:10:10.270Z,53.23
2019-04-22T13:13:16.785Z,52.84
2019-04-22T13:16:23.133Z,53.22
2019-04-22T13:19:32.226Z,52.80
2019-04-22T13:22:40.975Z,51.52
2019-04-22T13:25:49.016Z,51.52
2019-04-22T13:28:59.079Z,50.07
2019-04-22T13:32:06.870Z,46.64
2019-04-22T13:35:15.381Z,45.52
2019-04-22T13:38:24.858Z,45.45
2019-04-22T13:41:39.886Z,46.76
2019-04-22T13:44:39.770Z,48.17
2019-04-22T13:48:02.992Z,47.71
2019-04-22T13:51:30.090Z,47.92
2019-04-22T13:57:58.426Z,46.87
2019-04-22T14:00:54.393Z,47.26
2019-04-22T14:04:38.820Z,48.58
2019-04-22T14:07:53.146Z,48.84
2019-04-22T14:11:14.916Z,50.02
2019-04-22T14:14:10.918Z,50.63
2019-04-22T14:17:29.475Z,52.24
2019-04-22T14:20:36.847Z,52.49
2019-04-22T14:27:24.662Z,54.29
2019-04-22T14:30:22.030Z,54.88
2019-04-22T14:33:30.178Z,54.09
2019-04-22T14:36:37.496Z,54.55
2019-04-22T14:39:48.181Z,54.46
2019-04-22T14:43:13.810Z,55.05
2019-04-22T14:46:36.569Z,55.05
2019-04-22T14:49:36.876Z,54.14
2019-04-22T14:52:50.657Z,53.85
2019-04-22T14:55:40.363Z,52.48
2019-04-22T14:58:47.119Z,52.69
2019-04-22T15:01:58.055Z,52.70
2019-04-22T15:08:17.382Z,55.19
2019-04-22T15:11:28.931Z,54.79
2019-04-22T15:14:35.519Z,54.20
2019-04-22T15:18:03.862Z,53.90
2019-04-22T15:21:14.505Z,52.80
2019-04-22T15:24:29.531Z,52.80
2019-04-22T15:27:37.375Z,51.68
2019-04-22T15:30:44.000Z,52.38
2019-04-22T15:33:52.390Z,51.23
2019-04-22T15:37:02.344Z,51.12
2019-04-22T15:40:13.056Z,51.50
2019-04-22T15:43:22.761Z,51.69
2019-04-22T15:46:37.121Z,50.66
2019-04-22T15:49:45.908Z,49.16
2019-04-22T15:52:55.550Z,48.48
2019-04-22T15:56:00.865Z,47.61
2019-04-22T15:59:28.692Z,48.31
2019-04-22T16:02:19.491Z,48.88
2019-04-22T16:05:26.034Z,49.28
2019-04-22T16:08:35.155Z,48.63
2019-04-22T16:11:42.282Z,48.87
2019-04-22T16:14:56.972Z,49.56
2019-04-22T16:18:10.566Z,49.95
2019-04-22T16:21:45.496Z,50.14
2019-04-22T16:25:02.041Z,51.06
2019-04-22T16:31:47.693Z,53.51
2019-04-22T16:34:54.699Z,55.32
2019-04-22T16:38:01.544Z,54.53
2019-04-22T16:41:10.759Z,54.49
2019-04-22T16:44:20.557Z,54.93
2019-04-22T16:47:29.480Z,55.21
2019-04-22T16:50:56.493Z,54.43
2019-04-22T16:54:08.546Z,54.33
2019-04-22T16:57:15.778Z,54.99
2019-04-22T17:00:22.673Z,55.65
2019-04-22T17:03:48.812Z,56.23
2019-04-22T17:06:55.509Z,56.34
2019-04-22T17:10:02.043Z,57.12
2019-04-22T17:13:16.863Z,57.93
2019-04-22T17:16:18.167Z,59.60
2019-04-22T17:19:27.035Z,60.19
2019-04-22T17:22:33.604Z,60.63
2019-04-22T17:25:40.544Z,61.35
2019-04-22T17:28:47.218Z,61.74
2019-04-22T17:32:02.996Z,62.54
2019-04-22T17:35:02.249Z,62.53
2019-04-22T17:38:16.341Z,62.53
2019-04-22T17:41:28.605Z,62.66
2019-04-22T17:44:58.516Z,63.15
2019-04-22T17:48:23.982Z,63.61
2019-04-22T17:54:34.001Z,65.42
2019-04-22T17:57:38.476Z,65.42
2019-04-22T18:00:56.613Z,65.71
2019-04-22T18:03:49.753Z,66.01
2019-04-22T18:07:20.369Z,65.79
2019-04-22T18:13:38.206Z,65.42
2019-04-22T18:16:43.152Z,65.91
2019-04-22T18:19:45.984Z,65.30
2019-04-22T18:23:12.703Z,65.87
2019-04-22T18:26:32.277Z,65.86
2019-04-22T18:29:44.843Z,66.50
2019-04-22T18:33:03.139Z,66.96
2019-04-22T18:36:02.581Z,67.31
2019-04-22T18:39:36.267Z,67.25
2019-04-22T18:42:23.984Z,67.34
2019-04-22T18:45:47.469Z,67.37
2019-04-22T18:48:53.965Z,67.39
2019-04-22T18:52:19.627Z,67.37
2019-04-22T18:55:52.986Z,67.42
2019-04-22T18:58:55.867Z,67.61
2019-04-22T19:02:14.262Z,67.89
2019-04-22T19:05:40.104Z,68.39
2019-04-22T19:09:01.737Z,68.38
2019-04-22T19:12:24.125Z,68.24
2019-04-22T19:15:25.237Z,68.37
2019-04-22T19:18:36.447Z,68.71
2019-04-22T19:21:43.365Z,69.25
2019-04-22T19:24:47.333Z,69.60
2019-04-22T19:31:52.668Z,70.70
2019-04-22T19:34:57.372Z,71.05
2019-04-22T19:37:59.910Z,71.32
2019-04-22T19:41:19.971Z,71.10
2019-04-22T19:44:36.393Z,71.21
2019-04-22T19:47:41.869Z,71.42
2019-04-22T19:51:04.745Z,71.38
2019-04-22T19:54:12.595Z,71.69
2019-04-22T19:57:11.607Z,71.61
2019-04-22T20:00:34.004Z,72.08
2019-04-22T20:04:28.218Z,72.18
2019-04-22T20:07:24.829Z,72.47
2019-04-22T20:10:40.242Z,73.20
2019-04-22T20:13:49.931Z,73.00
2019-04-22T20:16:48.934Z,73.56
2019-04-22T20:20:20.719Z,73.92
2019-04-22T20:23:33.035Z,74.71
2019-04-22T20:27:07.062Z,74.85
2019-04-22T20:30:28.281Z,75.39
2019-04-22T20:33:46.559Z,75.59
2019-04-22T20:36:57.004Z,75.77
2019-04-22T20:39:58.563Z,75.96
2019-04-22T20:43:25.150Z,75.96
2019-04-22T20:46:31.876Z,75.89
2019-04-22T20:49:44.495Z,76.88
2019-04-22T20:53:11.696Z,76.35
2019-04-22T20:56:18.899Z,76.65
2019-04-22T20:59:29.937Z,76.42
2019-04-22T21:02:31.272Z,76.76
2019-04-22T21:05:52.630Z,77.07
2019-04-22T21:09:15.531Z,77.07
2019-04-22T21:12:13.750Z,77.60
2019-04-22T21:15:37.440Z,77.03
2019-04-22T21:18:39.137Z,77.26
2019-04-22T21:21:57.763Z,77.17
2019-04-22T21:24:57.566Z,77.47
2019-04-22T21:28:18.107Z,77.02
2019-04-22T21:31:23.504Z,77.00
2019-04-22T21:34:26.378Z,77.15
2019-04-22T21:37:44.443Z,77.39
2019-04-22T21:41:12.627Z,77.07
2019-04-22T21:44:21.225Z,76.88
2019-04-22T21:47:40.381Z,77.25
2019-04-22T21:50:54.331Z,77.49
2019-04-22T21:54:18.291Z,77.16
2019-04-22T21:58:02.653Z,77.61
2019-04-22T22:01:29.260Z,77.23
2019-04-22T22:04:29.188Z,77.14
2019-04-22T22:07:27.664Z,77.79
2019-04-22T22:10:51.152Z,77.69
2019-04-22T22:14:02.386Z,77.21
2019-04-22T22:17:02.043Z,77.35
2019-04-22T22:20:21.327Z,77.28
2019-04-22T22:23:40.823Z,77.33
2019-04-22T22:27:14.357Z,76.93
2019-04-22T22:30:48.053Z,77.27
2019-04-22T22:33:35.532Z,77.35
2019-04-22T22:36:40.879Z,77.55
2019-04-22T22:40:03.505Z,77.08
2019-04-22T22:43:17.272Z,76.45
2019-04-22T22:46:31.903Z,75.92
2019-04-22T23:00:01.742Z,77.06
2019-04-22T23:06:36.991Z,77.82
2019-04-22T23:09:36.658Z,78.16
2019-04-22T23:13:08.388Z,78.21
2019-04-22T23:16:00.821Z,78.66
2019-04-22T23:19:06.846Z,79.60
2019-04-22T23:23:06.206Z,80.08
2019-04-22T23:26:06.629Z,80.37
2019-04-22T23:29:34.365Z,80.21
2019-04-22T23:32:39.945Z,80.68
2019-04-22T23:36:18.670Z,80.88
2019-04-22T23:39:48.171Z,80.63
2019-04-22T23:42:52.829Z,80.86
2019-04-22T23:46:02.278Z,80.88
2019-04-22T23:49:08.011Z,81.08
2019-04-22T23:52:30.551Z,81.34
2019-04-22T23:55:43.619Z,81.29
2019-04-22T23:59:00.929Z,80.90
